Time;durP1;ratioP1;P1;durP2;ratioP2;P2;SDS_P1;SDS_P2;PMS_P1;PMS_P2;Temp;Humidity;BMP_temperature;BMP_pressure;BME280_temperature;BME280_humidity;BME280_pressure;Samples;Min_cycle;Max_cycle;Signal;HPM_P1;HPM_P2
2023/05/27 00:00:45;;;;;;;11.07;3.42;;;9.20;99.90;;;;;;5037540;28;20091;-76
2023/05/27 00:03:13;;;;;;;11.25;3.10;;;9.20;99.90;;;;;;5037932;28;20072;-74
2023/05/27 00:05:39;;;;;;;10.93;3.42;;;9.10;99.90;;;;;;5037995;28;20119;-73
2023/05/27 00:08:05;;;;;;;13.82;3.90;;;9.10;99.90;;;;;;5020562;28;22010;-73
2023/05/27 00:10:31;;;;;;;12.52;3.83;;;9.10;99.90;;;;;;5018838;28;20079;-74
2023/05/27 00:12:57;;;;;;;18.88;3.85;;;9.10;99.90;;;;;;5038841;28;20127;-74
2023/05/27 00:15:22;;;;;;;11.27;3.58;;;9.10;99.90;;;;;;5038082;28;20595;-74
2023/05/27 00:17:49;;;;;;;13.00;3.65;;;9.00;99.90;;;;;;5021721;28;20048;-73
2023/05/27 00:20:16;;;;;;;12.77;3.40;;;9.10;99.90;;;;;;5021780;28;20056;-73
2023/05/27 00:22:41;;;;;;;9.63;3.13;;;9.00;99.90;;;;;;5037219;28;20056;-74
2023/05/27 00:25:08;;;;;;;12.43;3.75;;;9.00;99.90;;;;;;4984709;28;20507;-74
2023/05/27 00:27:40;;;;;;;8.15;3.13;;;9.00;99.90;;;;;;5035804;28;20037;-74
2023/05/27 00:30:07;;;;;;;16.17;3.70;;;9.00;99.90;;;;;;5020616;28;20045;-74
2023/05/27 00:32:33;;;;;;;11.40;3.30;;;8.90;99.90;;;;;;5035951;28;20458;-74
2023/05/27 00:34:58;;;;;;;11.60;3.20;;;8.90;99.90;;;;;;5033196;28;20045;-74
2023/05/27 00:37:24;;;;;;;12.48;3.40;;;8.90;99.90;;;;;;5021012;28;20136;-73
2023/05/27 00:39:51;;;;;;;9.95;3.67;;;8.90;99.90;;;;;;5021454;28;20051;-76
2023/05/27 00:42:16;;;;;;;9.38;3.22;;;8.90;99.90;;;;;;5036298;28;20047;-75
2023/05/27 00:44:42;;;;;;;13.60;2.88;;;8.90;99.90;;;;;;5037786;28;20484;-74
2023/05/27 00:47:08;;;;;;;12.20;3.63;;;8.90;99.90;;;;;;5038630;28;20053;-74
2023/05/27 00:49:34;;;;;;;10.93;3.17;;;8.80;99.90;;;;;;5037324;28;20048;-73
2023/05/27 00:52:01;;;;;;;11.18;2.83;;;8.80;99.90;;;;;;5004759;28;20238;-75
2023/05/27 00:54:27;;;;;;;16.65;3.63;;;8.80;99.90;;;;;;5022532;28;20056;-74
2023/05/27 00:56:53;;;;;;;9.10;3.17;;;8.80;99.90;;;;;;5020430;28;20056;-75
2023/05/27 00:59:21;;;;;;;8.82;2.70;;;8.80;99.90;;;;;;5037388;28;20142;-74
2023/05/27 01:01:48;;;;;;;11.07;3.10;;;8.80;99.90;;;;;;5037749;28;20165;-75
2023/05/27 01:04:14;;;;;;;10.88;3.42;;;8.80;99.90;;;;;;5020382;28;20048;-74
2023/05/27 01:07:02;;;;;;;11.38;2.97;;;8.70;99.90;;;;;;5004262;28;20059;-74
2023/05/27 01:09:40;;;;;;;13.07;3.50;;;8.70;99.90;;;;;;5037629;28;20041;-74
2023/05/27 01:12:36;;;;;;;16.17;3.30;;;8.70;99.90;;;;;;5036915;28;20037;-74
2023/05/27 01:15:06;;;;;;;14.10;3.37;;;8.60;99.90;;;;;;5036082;28;20075;-74
2023/05/27 01:17:37;;;;;;;10.10;3.40;;;8.60;99.90;;;;;;5020719;28;20081;-73
2023/05/27 01:20:05;;;;;;;14.85;3.58;;;8.60;99.90;;;;;;5037067;28;20163;-75
2023/05/27 01:22:31;;;;;;;9.82;2.97;;;8.60;99.90;;;;;;5024041;28;20045;-72
2023/05/27 01:24:57;;;;;;;10.35;3.17;;;8.60;99.90;;;;;;5024039;28;20049;-75
2023/05/27 01:27:26;;;;;;;14.35;3.50;;;8.50;99.90;;;;;;5040149;28;20052;-73
2023/05/27 01:29:56;;;;;;;11.45;3.10;;;8.50;99.90;;;;;;5056111;28;20088;-72
2023/05/27 01:32:44;;;;;;;11.20;3.10;;;8.50;99.90;;;;;;5041708;28;20052;-74
2023/05/27 01:35:30;;;;;;;9.48;3.78;;;8.50;99.90;;;;;;5058891;28;20132;-73
2023/05/27 01:37:56;;;;;;;;;;;8.50;99.90;;;;;;5072411;28;20116;-75
2023/05/27 01:40:23;;;;;;;13.25;3.13;;;8.50;99.90;;;;;;5039502;28;19963;-73
2023/05/27 01:42:49;;;;;;;10.65;3.53;;;8.50;99.90;;;;;;5040433;28;20052;-73
2023/05/27 01:45:15;;;;;;;11.18;3.75;;;8.40;99.90;;;;;;5023611;28;20132;-73
2023/05/27 01:47:43;;;;;;;12.52;3.72;;;8.50;99.90;;;;;;5040508;28;20044;-74
2023/05/27 01:50:09;;;;;;;12.80;3.10;;;8.50;99.90;;;;;;5040305;28;20124;-75
2023/05/27 01:52:35;;;;;;;14.40;3.45;;;8.40;99.90;;;;;;5022749;28;20650;-74
2023/05/27 01:55:01;;;;;;;14.75;3.20;;;8.40;99.90;;;;;;5021940;28;20048;-73
2023/05/27 01:57:27;;;;;;;12.50;3.42;;;8.40;99.90;;;;;;5030421;28;20057;-73
2023/05/27 01:59:53;;;;;;;13.30;3.35;;;8.40;99.90;;;;;;5024671;28;20048;-75
2023/05/27 02:02:19;;;;;;;13.27;3.30;;;8.40;99.90;;;;;;5039379;28;20123;-75
2023/05/27 02:04:44;;;;;;;8.30;2.97;;;8.30;99.90;;;;;;5038210;28;20055;-74
2023/05/27 02:07:10;;;;;;;9.10;3.05;;;8.30;99.90;;;;;;5020960;28;20081;-75
2023/05/27 02:09:36;;;;;;;8.50;2.92;;;8.30;99.90;;;;;;5039482;28;20083;-74
2023/05/27 02:12:02;;;;;;;11.20;3.28;;;8.30;99.90;;;;;;5012040;28;20238;-76
2023/05/27 02:14:28;;;;;;;7.95;3.13;;;8.30;99.90;;;;;;5056789;28;20079;-74
2023/05/27 02:16:54;;;;;;;12.85;3.70;;;8.20;99.90;;;;;;5022533;28;20037;-74
2023/05/27 02:19:22;;;;;;;11.70;3.45;;;8.20;99.90;;;;;;5058330;28;20114;-74
2023/05/27 02:21:47;;;;;;;12.95;3.67;;;8.20;99.90;;;;;;5022974;28;20052;-73
2023/05/27 02:24:13;;;;;;;9.05;3.92;;;8.50;99.90;;;;;;5039939;28;20049;-75
2023/05/27 02:26:42;;;;;;;12.75;3.15;;;8.20;99.90;;;;;;5041552;28;20561;-73
2023/05/27 02:29:07;;;;;;;12.38;3.72;;;8.20;99.90;;;;;;5022923;28;20053;-74
2023/05/27 02:31:33;;;;;;;10.52;3.58;;;7.10;99.90;;;;;;5039603;28;20051;-73
2023/05/27 02:33:59;;;;;;;11.77;3.30;;;8.20;99.90;;;;;;5070872;28;20536;-75
2023/05/27 02:36:25;;;;;;;9.95;3.40;;;8.10;99.90;;;;;;5035703;28;20135;-74
2023/05/27 02:38:50;;;;;;;12.80;3.65;;;8.10;99.90;;;;;;5042258;28;20167;-74
2023/05/27 02:41:16;;;;;;;9.88;3.63;;;8.10;99.90;;;;;;5023056;28;20476;-74
2023/05/27 02:43:42;;;;;;;9.43;3.20;;;8.10;99.90;;;;;;5023507;28;20053;-73
2023/05/27 02:46:08;;;;;;;11.15;3.70;;;8.10;99.90;;;;;;5037296;28;22109;-76
2023/05/27 02:48:34;;;;;;;11.32;3.40;;;8.10;99.90;;;;;;5039988;28;20045;-74
2023/05/27 02:51:00;;;;;;;12.70;4.38;;;8.10;99.90;;;;;;5006042;28;20045;-74
2023/05/27 02:53:25;;;;;;;14.27;3.50;;;8.10;99.90;;;;;;5022387;28;20037;-74
2023/05/27 02:55:52;;;;;;;18.75;4.07;;;8.00;99.90;;;;;;5036338;28;20053;-74
2023/05/27 02:58:18;;;;;;;15.30;3.58;;;8.00;99.90;;;;;;5038629;28;20053;-76
2023/05/27 03:00:43;;;;;;;11.70;3.45;;;8.00;99.90;;;;;;5023294;28;20126;-75
2023/05/27 03:03:15;;;;;;;9.45;3.15;;;8.00;99.90;;;;;;5055708;28;20052;-74
2023/05/27 03:05:40;;;;;;;9.40;3.15;;;8.00;99.90;;;;;;5010015;28;20044;-76
2023/05/27 03:08:06;;;;;;;9.65;4.00;;;8.00;99.90;;;;;;5017294;28;20049;-75
2023/05/27 03:10:33;;;;;;;8.77;3.55;;;7.90;99.90;;;;;;5040584;28;20037;-73
2023/05/27 03:12:58;;;;;;;13.25;4.18;;;7.90;99.90;;;;;;5071726;28;20565;-75
2023/05/27 03:15:24;;;;;;;10.00;3.97;;;7.90;99.90;;;;;;5028226;28;20131;-74
2023/05/27 03:17:51;;;;;;;12.32;3.95;;;7.90;99.90;;;;;;5036831;28;20131;-74
2023/05/27 03:20:18;;;;;;;8.30;3.55;;;7.90;99.90;;;;;;5038945;28;20048;-75
2023/05/27 03:22:44;;;;;;;10.38;3.47;;;7.80;99.90;;;;;;5037789;28;20057;-75
2023/05/27 03:25:11;;;;;;;12.50;4.20;;;8.00;99.90;;;;;;5021473;28;20044;-75
2023/05/27 03:27:37;;;;;;;8.25;3.78;;;7.80;99.90;;;;;;5038515;28;20116;-74
2023/05/27 03:30:04;;;;;;;14.60;4.13;;;7.80;99.90;;;;;;5028459;28;21048;-76
2023/05/27 03:32:30;;;;;;;14.80;4.25;;;7.70;99.90;;;;;;5039125;28;20052;-74
2023/05/27 03:34:56;;;;;;;11.63;4.10;;;7.70;99.90;;;;;;5055551;28;20048;-74
2023/05/27 03:37:22;;;;;;;12.32;4.28;;;7.70;99.90;;;;;;4996750;28;20045;-74
2023/05/27 03:39:48;;;;;;;10.10;3.88;;;7.60;99.90;;;;;;5022169;28;20056;-77
2023/05/27 03:42:14;;;;;;;12.85;3.80;;;7.60;99.90;;;;;;5037908;28;20052;-74
2023/05/27 03:44:40;;;;;;;10.98;3.78;;;7.60;99.90;;;;;;5035795;28;20049;-76
2023/05/27 03:47:06;;;;;;;10.57;3.75;;;7.60;99.90;;;;;;5029445;28;20120;-74
2023/05/27 03:49:31;;;;;;;14.27;3.95;;;7.60;99.90;;;;;;5005566;28;20194;-74
2023/05/27 03:51:59;;;;;;;12.95;4.00;;;7.50;99.90;;;;;;5021563;28;20075;-75
2023/05/27 03:54:26;;;;;;;12.52;4.68;;;7.50;99.90;;;;;;5020484;28;20045;-72
2023/05/27 03:56:52;;;;;;;15.90;4.20;;;7.50;99.90;;;;;;5038103;28;20056;-73
2023/05/27 03:59:18;;;;;;;10.05;3.83;;;7.50;99.90;;;;;;5021505;28;20465;-73
2023/05/27 04:01:44;;;;;;;12.52;4.00;;;7.50;99.90;;;;;;5021036;28;20054;-75
2023/05/27 04:04:10;;;;;;;10.10;4.53;;;7.50;99.90;;;;;;5038087;28;20057;-74
2023/05/27 04:06:36;;;;;;;8.68;4.28;;;7.70;99.90;;;;;;5038663;28;20041;-74
2023/05/27 04:09:03;;;;;;;9.63;3.60;;;7.60;99.90;;;;;;5021423;28;20037;-73
2023/05/27 04:11:30;;;;;;;10.55;4.20;;;7.80;99.90;;;;;;5038586;28;20488;-72
2023/05/27 04:13:56;;;;;;;14.13;4.28;;;7.60;99.90;;;;;;5036124;28;20112;-74
2023/05/27 04:16:23;;;;;;;10.68;3.55;;;7.60;99.90;;;;;;4988700;28;20407;-73
2023/05/27 04:18:51;;;;;;;11.07;4.10;;;7.60;99.90;;;;;;5037377;28;20052;-74
2023/05/27 04:21:20;;;;;;;15.75;4.22;;;7.70;99.90;;;;;;4996513;28;20048;-73
2023/05/27 04:23:46;;;;;;;8.90;3.10;;;7.70;99.90;;;;;;5036597;28;20045;-74
2023/05/27 04:26:12;;;;;;;11.60;3.95;;;7.70;99.90;;;;;;5034409;28;20053;-73
2023/05/27 04:28:39;;;;;;;10.05;3.72;;;9.00;99.90;;;;;;5021086;28;20049;-74
2023/05/27 04:31:05;;;;;;;10.13;3.70;;;7.80;99.90;;;;;;5005822;28;20049;-75
2023/05/27 04:33:31;;;;;;;9.40;3.67;;;7.80;99.90;;;;;;5016974;28;20060;-75
2023/05/27 04:35:56;;;;;;;14.15;4.40;;;7.90;99.90;;;;;;5005220;28;20049;-74
2023/05/27 04:38:23;;;;;;;9.02;3.53;;;8.00;99.90;;;;;;5020534;28;20049;-73
2023/05/27 04:40:53;;;;;;;9.52;3.70;;;8.00;99.90;;;;;;5022688;28;20040;-75
2023/05/27 04:43:20;;;;;;;13.82;4.25;;;8.10;99.90;;;;;;5017440;28;20072;-74
2023/05/27 04:45:46;;;;;;;9.43;3.55;;;8.20;99.90;;;;;;5053300;28;20102;-73
2023/05/27 04:48:15;;;;;;;11.65;3.58;;;8.20;99.90;;;;;;5020084;28;20987;-73
2023/05/27 04:50:41;;;;;;;13.18;4.22;;;8.30;99.90;;;;;;5038400;28;20057;-76
2023/05/27 04:53:08;;;;;;;10.50;4.22;;;8.40;99.90;;;;;;5036830;28;20407;-72
2023/05/27 04:55:34;;;;;;;12.40;4.05;;;8.50;99.90;;;;;;5034084;28;20052;-78
2023/05/27 04:58:05;;;;;;;12.05;4.07;;;8.50;99.90;;;;;;5017984;28;20567;-78
2023/05/27 05:00:49;;;;;;;12.18;3.60;;;8.60;99.90;;;;;;5018339;28;20091;-75
2023/05/27 05:03:36;;;;;;;11.85;3.70;;;8.70;99.90;;;;;;5054154;28;20103;-73
2023/05/27 05:06:06;;;;;;;9.55;3.38;;;8.90;99.90;;;;;;5022719;28;20124;-69
2023/05/27 05:08:31;;;;;;;11.52;4.00;;;9.00;99.90;;;;;;5037566;28;20128;-71
2023/05/27 05:10:57;;;;;;;11.68;4.38;;;9.10;99.90;;;;;;4985422;28;20121;-75
2023/05/27 05:13:28;;;;;;;11.45;3.63;;;9.20;99.90;;;;;;5007250;28;20116;-76
2023/05/27 05:16:07;;;;;;;10.48;3.42;;;9.30;99.90;;;;;;5036162;28;20080;-78
2023/05/27 05:18:36;;;;;;;15.20;3.80;;;9.40;99.90;;;;;;5024470;28;20054;-75
2023/05/27 05:24:12;;;;;;;11.27;3.90;;;9.60;99.90;;;;;;5039154;28;20555;-75
2023/05/27 05:26:58;;;;;;;12.05;3.75;;;9.70;99.90;;;;;;5042479;28;20515;-70
2023/05/27 05:29:46;;;;;;;13.80;3.88;;;9.80;99.90;;;;;;5038191;28;20128;-76
2023/05/27 05:32:38;;;;;;;10.07;3.55;;;9.90;99.90;;;;;;5033655;28;20211;-76
2023/05/27 05:35:16;;;;;;;9.48;4.00;;;10.10;99.90;;;;;;5042862;28;20049;-76
2023/05/27 05:38:13;;;;;;;15.15;3.47;;;10.20;99.90;;;;;;5042779;28;20593;-77
2023/05/27 05:40:52;;;;;;;13.20;3.90;;;10.30;99.90;;;;;;5039674;28;20060;-77
2023/05/27 05:43:26;;;;;;;10.60;3.15;;;10.30;99.90;;;;;;5038363;28;20053;-78
2023/05/27 05:46:21;;;;;;;14.75;4.38;;;10.50;99.90;;;;;;5038083;28;20052;-77
2023/05/27 05:49:27;;;;;;;10.40;3.80;;;10.50;99.90;;;;;;5004357;28;20065;-77
2023/05/27 05:52:13;;;;;;;10.57;3.72;;;10.60;99.90;;;;;;4987299;28;20053;-79
2023/05/27 05:54:39;;;;;;;;;;;10.70;99.90;;;;;;4987813;28;20091;-77
2023/05/27 05:57:37;;;;;;;10.93;3.22;;;10.80;99.90;;;;;;4956237;28;20465;-79
2023/05/27 06:03:30;;;;;;;10.77;3.75;;;10.90;99.90;;;;;;5001340;28;20045;-76
2023/05/27 06:06:08;;;;;;;14.20;3.88;;;11.10;99.90;;;;;;5001240;28;20481;-78
2023/05/27 06:08:46;;;;;;;12.05;3.63;;;11.20;99.90;;;;;;5006177;28;21627;-79
2023/05/27 06:11:26;;;;;;;11.43;3.95;;;11.30;99.90;;;;;;4976376;28;20049;-77
2023/05/27 06:13:59;;;;;;;9.27;3.58;;;11.30;99.90;;;;;;4989984;28;20376;-78
2023/05/27 06:16:44;;;;;;;14.00;3.70;;;11.50;99.90;;;;;;5025535;28;20064;-77
2023/05/27 06:19:30;;;;;;;12.27;4.35;;;11.50;99.90;;;;;;5004032;28;20066;-78
2023/05/27 06:21:58;;;;;;;10.38;3.90;;;11.60;99.90;;;;;;4987294;28;20141;-77
2023/05/27 06:24:29;;;;;;;12.10;4.30;;;11.70;99.90;;;;;;4994438;28;20058;-75
2023/05/27 06:27:16;;;;;;;14.00;3.95;;;11.80;99.90;;;;;;5004444;28;20088;-72
2023/05/27 06:29:44;;;;;;;13.27;4.43;;;11.90;99.90;;;;;;4998875;28;20605;-74
2023/05/27 06:32:22;;;;;;;12.40;4.32;;;12.00;99.90;;;;;;5000858;28;20065;-76
2023/05/27 06:35:07;;;;;;;15.93;4.55;;;12.10;99.90;;;;;;5001754;28;20085;-73
2023/05/27 06:37:36;;;;;;;16.45;5.72;;;12.20;99.90;;;;;;4987688;28;20145;-73
2023/05/27 06:40:15;;;;;;;16.23;4.82;;;12.40;99.90;;;;;;4981127;28;20765;-75
2023/05/27 06:42:55;;;;;;;11.88;4.15;;;12.60;99.90;;;;;;4997518;28;20141;-72
2023/05/27 06:45:35;;;;;;;10.95;5.05;;;12.70;99.90;;;;;;4980854;28;20054;-75
2023/05/27 06:48:35;;;;;;;16.38;5.38;;;12.90;99.90;;;;;;4968536;28;20066;-73
2023/05/27 06:51:29;;;;;;;12.10;4.38;;;13.10;99.90;;;;;;5011631;28;20061;-73
2023/05/27 06:53:55;;;;;;;10.93;4.20;;;13.30;99.90;;;;;;5024389;28;20044;-75
2023/05/27 06:56:21;;;;;;;15.63;5.30;;;13.50;99.90;;;;;;5029295;28;20051;-74
2023/05/27 06:58:52;;;;;;;15.73;5.13;;;13.70;99.90;;;;;;5033234;28;20126;-77
2023/05/27 07:01:27;;;;;;;16.50;4.83;;;12.60;99.90;;;;;;5025222;28;20513;-78
2023/05/27 07:03:53;;;;;;;16.67;5.05;;;14.10;99.90;;;;;;5062977;28;20119;-72
2023/05/27 07:06:19;;;;;;;15.10;4.50;;;14.10;99.90;;;;;;5045263;28;20186;-74
2023/05/27 07:08:53;;;;;;;13.52;4.55;;;14.10;99.90;;;;;;5040687;28;20078;-73
2023/05/27 07:11:20;;;;;;;12.48;3.97;;;14.10;99.90;;;;;;5044729;28;20511;-75
2023/05/27 07:14:09;;;;;;;14.85;4.15;;;14.10;99.90;;;;;;5031217;28;20124;-75
2023/05/27 07:17:08;;;;;;;14.00;4.15;;;14.20;99.90;;;;;;5045487;28;20053;-74
2023/05/27 07:19:43;;;;;;;16.45;4.00;;;14.20;99.90;;;;;;5034082;28;20041;-74
2023/05/27 07:22:46;;;;;;;13.00;4.57;;;13.90;99.90;;;;;;5049009;28;20118;-74
2023/05/27 07:25:46;;;;;;;13.13;3.85;;;14.30;99.90;;;;;;5021443;28;20491;-75
2023/05/27 07:28:24;;;;;;;15.43;4.70;;;14.20;99.90;;;;;;5028326;28;20417;-74
2023/05/27 07:31:01;;;;;;;9.43;3.70;;;14.30;99.90;;;;;;5045068;28;20714;-76
2023/05/27 07:33:33;;;;;;;10.45;3.72;;;14.30;99.90;;;;;;5033790;28;20489;-76
2023/05/27 07:36:31;;;;;;;13.90;4.10;;;14.50;99.90;;;;;;5034443;28;20426;-77
2023/05/27 07:38:56;;;;;;;10.30;3.92;;;14.90;99.90;;;;;;5075120;28;20049;-75
2023/05/27 07:41:45;;;;;;;10.73;3.67;;;15.30;99.90;;;;;;5034327;28;20059;-76
2023/05/27 07:44:38;;;;;;;12.25;4.55;;;15.40;99.90;;;;;;5043236;28;20049;-77
2023/05/27 07:47:04;;;;;;;13.85;4.22;;;15.40;99.90;;;;;;5055014;28;20053;-74
2023/05/27 07:49:32;;;;;;;11.18;4.05;;;15.50;99.90;;;;;;5046561;28;20053;-77
2023/05/27 07:52:07;;;;;;;13.68;4.28;;;15.70;99.90;;;;;;5017679;28;20074;-73
2023/05/27 07:55:05;;;;;;;9.85;4.65;;;15.80;99.90;;;;;;4988521;28;20468;-73
2023/05/27 07:57:38;;;;;;;11.00;3.78;;;16.10;99.90;;;;;;5045415;28;20071;-73
2023/05/27 08:00:16;;;;;;;10.55;3.83;;;16.40;99.90;;;;;;5048640;28;20119;-73
2023/05/27 08:03:12;;;;;;;9.13;3.60;;;16.60;99.90;;;;;;5047466;28;20045;-78
2023/05/27 08:05:38;;;;;;;12.63;4.13;;;17.00;99.90;;;;;;5048106;28;20514;-74
2023/05/27 08:08:05;;;;;;;10.05;3.78;;;17.20;99.90;;;;;;5048106;28;20048;-74
2023/05/27 08:10:31;;;;;;;11.40;4.40;;;17.50;99.90;;;;;;5049979;28;20545;-75
2023/05/27 08:13:01;;;;;;;12.57;4.07;;;17.40;99.90;;;;;;5033038;28;20472;-75
2023/05/27 08:15:28;;;;;;;10.95;3.42;;;17.60;99.90;;;;;;5031529;28;20121;-75
2023/05/27 08:17:55;;;;;;;8.82;3.90;;;17.90;99.90;;;;;;5030915;28;20502;-76
2023/05/27 08:20:31;;;;;;;11.15;4.22;;;18.00;99.90;;;;;;4998513;28;20132;-76
2023/05/27 08:23:11;;;;;;;11.95;4.28;;;18.10;99.90;;;;;;5044882;28;20530;-75
2023/05/27 08:25:58;;;;;;;13.10;4.10;;;18.10;99.90;;;;;;5020770;28;20057;-73
2023/05/27 08:28:28;;;;;;;9.07;3.97;;;18.20;99.90;;;;;;5031862;28;20044;-76
2023/05/27 08:31:05;;;;;;;12.40;3.50;;;18.40;99.90;;;;;;5045152;28;20053;-76
2023/05/27 08:33:32;;;;;;;10.30;4.40;;;18.60;99.90;;;;;;5045250;28;20072;-75
2023/05/27 08:36:01;;;;;;;12.13;4.32;;;18.70;99.90;;;;;;5034959;28;20057;-75
2023/05/27 08:38:53;;;;;;;11.77;3.97;;;19.00;99.90;;;;;;5056456;28;20048;-75
2023/05/27 08:41:36;;;;;;;10.52;3.67;;;19.10;99.90;;;;;;5040962;28;20056;-76
2023/05/27 08:44:17;;;;;;;13.10;3.97;;;19.30;99.90;;;;;;5043314;28;20053;-75
2023/05/27 08:46:48;;;;;;;11.68;3.53;;;19.60;99.90;;;;;;5036541;28;20048;-74
2023/05/27 08:49:28;;;;;;;10.25;3.33;;;19.70;99.90;;;;;;5047926;28;20436;-73
2023/05/27 08:52:00;;;;;;;11.05;3.80;;;20.00;99.90;;;;;;5047999;28;20061;-75
2023/05/27 08:54:45;;;;;;;14.45;3.97;;;20.30;99.90;;;;;;5045521;28;20080;-73
2023/05/27 08:57:16;;;;;;;12.27;4.10;;;20.30;99.90;;;;;;5030739;28;20056;-74
2023/05/27 08:59:45;;;;;;;9.85;3.70;;;20.00;99.90;;;;;;5049400;28;20045;-73
2023/05/27 09:02:15;;;;;;;11.93;4.00;;;19.70;99.90;;;;;;5045045;28;20492;-76
2023/05/27 09:04:43;;;;;;;7.80;3.70;;;19.80;99.90;;;;;;5045076;28;20280;-81
2023/05/27 09:07:20;;;;;;;10.18;4.05;;;20.00;99.90;;;;;;5048460;28;20084;-74
2023/05/27 09:09:59;;;;;;;9.60;3.30;;;19.90;99.90;;;;;;5049827;28;20095;-75
2023/05/27 09:12:44;;;;;;;8.50;3.13;;;19.70;99.90;;;;;;5030032;28;20051;-72
2023/05/27 09:15:11;;;;;;;8.13;3.00;;;19.80;99.90;;;;;;5076076;28;20372;-75
2023/05/27 09:17:51;;;;;;;11.38;3.50;;;20.20;99.90;;;;;;5011191;28;20064;-75
2023/05/27 09:20:26;;;;;;;11.65;3.92;;;20.50;99.90;;;;;;5046634;28;20183;-73
2023/05/27 09:23:05;;;;;;;11.05;3.50;;;20.90;99.80;;;;;;5051261;28;20045;-75
2023/05/27 09:25:33;;;;;;;7.53;3.33;;;21.30;99.30;;;;;;5021464;28;20527;-75
2023/05/27 09:28:10;;;;;;;9.73;3.33;;;21.60;99.10;;;;;;5047307;28;20087;-75
2023/05/27 09:31:05;;;;;;;8.50;3.30;;;21.20;98.20;;;;;;5044486;28;20057;-74
2023/05/27 09:33:39;;;;;;;11.83;3.23;;;22.30;98.00;;;;;;5043777;28;20064;-73
2023/05/27 09:36:06;;;;;;;10.60;3.50;;;22.30;97.50;;;;;;5025404;28;20056;-75
2023/05/27 09:38:41;;;;;;;11.45;3.65;;;22.50;96.90;;;;;;5019155;28;20048;-75
2023/05/27 09:41:08;;;;;;;11.43;3.20;;;22.60;96.40;;;;;;5022774;28;20325;-75
2023/05/27 09:44:02;;;;;;;10.35;3.47;;;22.70;96.50;;;;;;5011844;28;20060;-76
2023/05/27 09:46:29;;;;;;;10.80;3.85;;;22.80;95.50;;;;;;5037612;28;20053;-76
2023/05/27 09:48:57;;;;;;;10.52;2.75;;;22.80;95.50;;;;;;5054331;28;20045;-75
2023/05/27 09:51:51;;;;;;;8.98;3.25;;;23.00;95.60;;;;;;5053470;28;20048;-76
2023/05/27 09:54:41;;;;;;;9.52;3.38;;;23.20;95.60;;;;;;5043206;28;20059;-76
2023/05/27 09:57:07;;;;;;;11.35;3.35;;;23.50;94.30;;;;;;5026342;28;20051;-75
2023/05/27 10:00:22;;;;;;;12.23;3.60;;;23.70;94.50;;;;;;5035567;28;20044;-74
2023/05/27 10:03:27;;;;;;;8.85;3.17;;;23.90;91.90;;;;;;5045506;28;20078;-76
2023/05/27 10:06:33;;;;;;;8.88;3.30;;;24.10;91.10;;;;;;5043544;28;20047;-76
2023/05/27 10:09:04;;;;;;;9.40;3.40;;;23.80;90.70;;;;;;5044798;28;20367;-77
2023/05/27 10:11:38;;;;;;;10.52;3.60;;;23.30;91.80;;;;;;5026781;28;20567;-77
2023/05/27 10:14:18;;;;;;;;;;;23.20;92.10;;;;;;5071539;28;20068;-75
2023/05/27 10:16:57;;;;;;;7.68;3.63;;;23.10;90.90;;;;;;5078199;28;19920;-75
2023/05/27 10:19:23;;;;;;;10.98;3.30;;;23.10;92.50;;;;;;5029852;28;20087;-75
2023/05/27 10:22:07;;;;;;;7.88;3.47;;;23.20;92.40;;;;;;5000479;28;20047;-78
2023/05/27 10:24:36;;;;;;;8.57;3.78;;;23.50;91.00;;;;;;5048684;28;20051;-74
2023/05/27 10:27:35;;;;;;;11.95;3.90;;;23.40;91.10;;;;;;5036030;28;20052;-75
2023/05/27 10:30:02;;;;;;;9.18;3.35;;;23.20;87.90;;;;;;5025540;28;20045;-75
2023/05/27 10:32:38;;;;;;;9.32;3.42;;;23.20;91.10;;;;;;5027861;28;20102;-76
2023/05/27 10:35:27;;;;;;;11.05;3.67;;;23.40;91.10;;;;;;5040258;28;20052;-77
2023/05/27 10:38:40;;;;;;;7.50;3.33;;;24.30;90.70;;;;;;5040919;28;20047;-77
2023/05/27 10:41:24;;;;;;;8.43;3.60;;;23.90;90.60;;;;;;5021111;28;20049;-78
2023/05/27 10:43:59;;;;;;;8.32;3.55;;;24.60;90.00;;;;;;5047830;28;20091;-76
2023/05/27 10:46:44;;;;;;;8.93;3.47;;;25.00;87.20;;;;;;5013554;28;20076;-79
2023/05/27 10:49:12;;;;;;;8.95;3.45;;;25.10;83.70;;;;;;5021444;28;20135;-76
2023/05/27 10:51:47;;;;;;;9.75;3.85;;;25.10;85.30;;;;;;5029687;28;20076;-79
2023/05/27 10:54:33;;;;;;;8.88;3.45;;;25.10;85.00;;;;;;5016442;28;20083;-77
2023/05/27 10:57:01;;;;;;;10.15;3.38;;;25.20;84.80;;;;;;5043952;28;20056;-77
2023/05/27 10:59:55;;;;;;;11.00;4.05;;;25.40;84.50;;;;;;5039310;28;20081;-77
2023/05/27 11:02:57;;;;;;;9.95;3.40;;;25.50;84.20;;;;;;5053138;28;20049;-77
2023/05/27 11:05:54;;;;;;;7.65;3.40;;;25.60;82.30;;;;;;5043053;28;21876;-75
2023/05/27 11:09:15;;;;;;;11.65;3.97;;;25.80;83.20;;;;;;5044930;28;20043;-77
2023/05/27 11:11:49;;;;;;;8.55;3.70;;;25.80;78.70;;;;;;5031028;28;20135;-75
2023/05/27 11:14:23;;;;;;;14.82;3.90;;;25.00;80.00;;;;;;5037209;28;20709;-77
2023/05/27 11:17:10;;;;;;;9.55;3.90;;;25.70;80.30;;;;;;5044739;28;20102;-75
2023/05/27 11:19:40;;;;;;;8.70;3.22;;;25.90;79.40;;;;;;5046077;28;20044;-75
2023/05/27 11:22:08;;;;;;;8.82;3.80;;;26.20;79.30;;;;;;5031901;28;21861;-75
2023/05/27 11:24:41;;;;;;;9.85;3.83;;;26.30;77.70;;;;;;5045542;28;20053;-75
2023/05/27 11:27:14;;;;;;;8.85;3.35;;;26.20;77.50;;;;;;5023382;28;20062;-75
2023/05/27 11:29:51;;;;;;;9.73;4.13;;;26.20;76.50;;;;;;5044809;28;20083;-77
2023/05/27 11:32:20;;;;;;;7.80;3.65;;;26.40;76.60;;;;;;5062572;28;20053;-75
2023/05/27 11:34:49;;;;;;;9.98;3.50;;;26.60;77.20;;;;;;5026856;28;20536;-75
2023/05/27 11:37:18;;;;;;;10.25;3.55;;;27.00;77.50;;;;;;5056962;28;20064;-75
2023/05/27 11:39:52;;;;;;;8.27;3.90;;;27.30;76.90;;;;;;5049553;28;20045;-77
2023/05/27 11:42:23;;;;;;;7.07;2.95;;;27.60;75.50;;;;;;5049020;28;20530;-75
2023/05/27 11:44:54;;;;;;;12.75;3.83;;;27.80;74.50;;;;;;5025368;28;20045;-76
2023/05/27 11:47:21;;;;;;;10.00;3.92;;;28.10;73.80;;;;;;5042637;28;20060;-75
2023/05/27 11:49:49;;;;;;;12.27;3.90;;;28.30;73.70;;;;;;5025176;28;20044;-75
2023/05/27 11:52:18;;;;;;;11.05;3.83;;;28.20;73.30;;;;;;5051580;28;20545;-75
2023/05/27 11:54:52;;;;;;;11.30;3.78;;;28.10;74.00;;;;;;5043847;28;20111;-75
2023/05/27 11:57:20;;;;;;;8.90;3.75;;;27.70;74.40;;;;;;5061907;28;20604;-76
2023/05/27 11:59:52;;;;;;;8.05;3.80;;;27.40;75.40;;;;;;5032581;28;20110;-75
2023/05/27 12:02:25;;;;;;;10.35;3.50;;;27.40;74.90;;;;;;5044957;28;20179;-76
2023/05/27 12:04:54;;;;;;;10.68;3.63;;;27.50;75.10;;;;;;5057338;28;20055;-75
2023/05/27 12:07:24;;;;;;;10.02;3.53;;;27.60;75.00;;;;;;5047851;28;20113;-77
2023/05/27 12:09:50;;;;;;;12.07;3.97;;;27.60;75.30;;;;;;5050153;28;20044;-76
2023/05/27 12:12:18;;;;;;;11.23;3.67;;;27.60;75.20;;;;;;5032497;28;20131;-75
2023/05/27 12:14:44;;;;;;;9.38;3.70;;;27.70;75.00;;;;;;5065766;28;20055;-74
2023/05/27 12:17:13;;;;;;;10.48;4.20;;;27.90;75.10;;;;;;5047811;28;20056;-74
2023/05/27 12:19:44;;;;;;;9.75;3.50;;;27.90;74.70;;;;;;5030379;28;20423;-73
2023/05/27 12:22:10;;;;;;;8.73;3.22;;;28.00;75.00;;;;;;5029471;28;20511;-74
2023/05/27 12:24:37;;;;;;;8.57;3.40;;;27.80;74.80;;;;;;5022388;28;20128;-73
2023/05/27 12:27:03;;;;;;;8.55;3.35;;;27.80;74.80;;;;;;5033021;28;20107;-74
2023/05/27 12:29:34;;;;;;;9.00;3.28;;;27.80;74.50;;;;;;5046218;28;20125;-73
2023/05/27 12:32:03;;;;;;;9.40;3.30;;;27.70;74.50;;;;;;5049361;28;20083;-71
2023/05/27 12:34:29;;;;;;;12.43;3.58;;;27.70;74.70;;;;;;5030504;28;20056;-74
2023/05/27 12:36:55;;;;;;;10.18;3.42;;;27.60;74.60;;;;;;5033841;28;20044;-71
2023/05/27 12:39:31;;;;;;;9.13;3.47;;;27.50;74.50;;;;;;5041402;28;20033;-74
2023/05/27 12:42:15;;;;;;;9.75;3.35;;;27.40;74.70;;;;;;5040772;28;20049;-74
2023/05/27 12:44:46;;;;;;;10.85;3.63;;;27.30;74.80;;;;;;5048400;28;20053;-73
2023/05/27 12:47:12;;;;;;;11.68;4.05;;;27.20;74.50;;;;;;5047977;28;20056;-74
2023/05/27 12:49:38;;;;;;;13.10;3.95;;;27.10;74.80;;;;;;5037492;28;20052;-74
2023/05/27 12:52:05;;;;;;;9.02;3.17;;;27.20;75.00;;;;;;5038130;28;20060;-73
2023/05/27 12:54:31;;;;;;;7.93;3.47;;;27.20;75.00;;;;;;5066645;28;20416;-73
2023/05/27 12:56:57;;;;;;;10.48;4.00;;;27.20;75.00;;;;;;5033270;28;20048;-74
2023/05/27 12:59:26;;;;;;;13.05;4.53;;;27.30;74.60;;;;;;5047471;28;20169;-75
2023/05/27 13:01:52;;;;;;;9.93;3.55;;;27.20;74.60;;;;;;5031593;28;20555;-74
2023/05/27 13:04:17;;;;;;;8.57;3.75;;;27.20;74.50;;;;;;5045447;28;20060;-74
2023/05/27 13:06:45;;;;;;;14.20;3.72;;;27.00;74.60;;;;;;5050019;28;20040;-73
2023/05/27 13:09:11;;;;;;;8.88;3.50;;;26.90;74.40;;;;;;5051644;28;20353;-75
2023/05/27 13:11:39;;;;;;;10.43;3.97;;;27.00;74.90;;;;;;5051887;28;20127;-74
2023/05/27 13:14:13;;;;;;;8.52;3.38;;;27.00;75.40;;;;;;5034977;28;20131;-74
2023/05/27 13:16:48;;;;;;;12.20;3.50;;;27.20;75.40;;;;;;5045356;28;20106;-75
2023/05/27 13:19:22;;;;;;;13.48;3.63;;;27.30;75.40;;;;;;5033288;28;20045;-75
2023/05/27 13:21:50;;;;;;;12.60;4.15;;;27.30;75.00;;;;;;5036379;28;20688;-74